sensor_id;sensor_type;location;lat;lon;timestamp;temperature;humidity
5899;DHT22;2975;50.956;6.962;2024-03-02T00:00:16;7.80;99.90
5899;DHT22;2975;50.956;6.962;2024-03-02T00:02:46;7.90;99.90
5899;DHT22;2975;50.956;6.962;2024-03-02T00:05:16;7.90;99.90
5899;DHT22;2975;50.956;6.962;2024-03-02T00:07:43;7.90;99.90
5899;DHT22;2975;50.956;6.962;2024-03-02T00:10:11;7.90;99.90
5899;DHT22;2975;50.956;6.962;2024-03-02T00:12:40;7.90;99.90
5899;DHT22;2975;50.956;6.962;2024-03-02T00:17:53;7.90;99.90
5899;DHT22;2975;50.956;6.962;2024-03-02T00:20:22;7.90;99.90
5899;DHT22;2975;50.956;6.962;2024-03-02T00:22:48;7.90;99.90
5899;DHT22;2975;50.956;6.962;2024-03-02T00:25:14;8.10;99.90
5899;DHT22;2975;50.956;6.962;2024-03-02T00:27:40;8.30;99.90
5899;DHT22;2975;50.956;6.962;2024-03-02T00:33:09;8.20;99.90
5899;DHT22;2975;50.956;6.962;2024-03-02T00:35:35;8.30;99.90
5899;DHT22;2975;50.956;6.962;2024-03-02T00:38:07;8.40;99.90
5899;DHT22;2975;50.956;6.962;2024-03-02T00:40:32;8.50;99.90
5899;DHT22;2975;50.956;6.962;2024-03-02T00:42:59;8.40;99.90
5899;DHT22;2975;50.956;6.962;2024-03-02T00:45:25;8.40;99.90
5899;DHT22;2975;50.956;6.962;2024-03-02T00:47:52;8.40;99.90
5899;DHT22;2975;50.956;6.962;2024-03-02T00:50:18;8.50;99.90
5899;DHT22;2975;50.956;6.962;2024-03-02T00:52:44;8.70;99.90
5899;DHT22;2975;50.956;6.962;2024-03-02T00:55:09;8.80;99.90
5899;DHT22;2975;50.956;6.962;2024-03-02T00:57:35;9.00;99.90
5899;DHT22;2975;50.956;6.962;2024-03-02T01:00:01;9.00;99.90
5899;DHT22;2975;50.956;6.962;2024-03-02T01:02:28;8.90;99.90
5899;DHT22;2975;50.956;6.962;2024-03-02T01:04:54;8.80;99.90
5899;DHT22;2975;50.956;6.962;2024-03-02T01:07:20;9.00;99.90
5899;DHT22;2975;50.956;6.962;2024-03-02T01:09:47;9.00;99.90
5899;DHT22;2975;50.956;6.962;2024-03-02T01:12:12;9.00;99.90
5899;DHT22;2975;50.956;6.962;2024-03-02T01:14:38;8.90;99.90
5899;DHT22;2975;50.956;6.962;2024-03-02T01:17:05;8.80;99.90
5899;DHT22;2975;50.956;6.962;2024-03-02T01:19:31;8.80;99.90
5899;DHT22;2975;50.956;6.962;2024-03-02T01:21:56;8.70;99.90
5899;DHT22;2975;50.956;6.962;2024-03-02T01:24:22;8.60;99.90
5899;DHT22;2975;50.956;6.962;2024-03-02T01:26:47;8.60;99.90
5899;DHT22;2975;50.956;6.962;2024-03-02T01:29:13;8.60;99.90
5899;DHT22;2975;50.956;6.962;2024-03-02T01:31:40;8.40;99.90
5899;DHT22;2975;50.956;6.962;2024-03-02T01:34:08;8.20;99.90
5899;DHT22;2975;50.956;6.962;2024-03-02T01:36:33;8.30;99.90
5899;DHT22;2975;50.956;6.962;2024-03-02T01:38:59;8.30;99.90
5899;DHT22;2975;50.956;6.962;2024-03-02T01:41:25;8.20;99.90
5899;DHT22;2975;50.956;6.962;2024-03-02T01:43:50;8.10;99.90
5899;DHT22;2975;50.956;6.962;2024-03-02T01:46:16;7.90;99.90
5899;DHT22;2975;50.956;6.962;2024-03-02T01:48:42;7.90;99.90
5899;DHT22;2975;50.956;6.962;2024-03-02T01:51:08;8.00;99.90
5899;DHT22;2975;50.956;6.962;2024-03-02T01:53:35;8.00;99.90
5899;DHT22;2975;50.956;6.962;2024-03-02T01:56:01;8.20;99.90
5899;DHT22;2975;50.956;6.962;2024-03-02T01:58:27;8.40;99.90
5899;DHT22;2975;50.956;6.962;2024-03-02T02:00:53;8.60;99.90
5899;DHT22;2975;50.956;6.962;2024-03-02T02:03:19;8.50;99.90
5899;DHT22;2975;50.956;6.962;2024-03-02T02:05:45;8.40;99.90
5899;DHT22;2975;50.956;6.962;2024-03-02T02:08:13;8.50;99.90
5899;DHT22;2975;50.956;6.962;2024-03-02T02:10:38;8.50;99.90
5899;DHT22;2975;50.956;6.962;2024-03-02T02:13:04;8.70;99.90
5899;DHT22;2975;50.956;6.962;2024-03-02T02:15:30;8.80;99.90
5899;DHT22;2975;50.956;6.962;2024-03-02T02:17:57;8.80;99.90
5899;DHT22;2975;50.956;6.962;2024-03-02T02:20:24;8.90;99.90
5899;DHT22;2975;50.956;6.962;2024-03-02T02:22:55;8.80;99.90
5899;DHT22;2975;50.956;6.962;2024-03-02T02:25:21;8.80;99.90
5899;DHT22;2975;50.956;6.962;2024-03-02T02:27:47;8.70;99.90
5899;DHT22;2975;50.956;6.962;2024-03-02T02:30:13;8.60;99.90
5899;DHT22;2975;50.956;6.962;2024-03-02T02:32:43;8.60;99.90
5899;DHT22;2975;50.956;6.962;2024-03-02T02:35:09;8.50;99.90
5899;DHT22;2975;50.956;6.962;2024-03-02T02:37:36;8.40;99.90
5899;DHT22;2975;50.956;6.962;2024-03-02T02:40:02;8.50;99.90
5899;DHT22;2975;50.956;6.962;2024-03-02T02:42:30;8.50;99.90
5899;DHT22;2975;50.956;6.962;2024-03-02T02:44:55;8.60;99.90
5899;DHT22;2975;50.956;6.962;2024-03-02T02:47:21;8.80;99.90
5899;DHT22;2975;50.956;6.962;2024-03-02T02:49:47;8.80;99.90
5899;DHT22;2975;50.956;6.962;2024-03-02T02:52:12;8.80;99.90
5899;DHT22;2975;50.956;6.962;2024-03-02T02:54:40;8.80;99.90
5899;DHT22;2975;50.956;6.962;2024-03-02T02:57:06;8.80;99.90
5899;DHT22;2975;50.956;6.962;2024-03-02T02:59:31;8.80;99.90
5899;DHT22;2975;50.956;6.962;2024-03-02T03:01:57;8.80;99.90
5899;DHT22;2975;50.956;6.962;2024-03-02T03:04:23;8.80;99.90
5899;DHT22;2975;50.956;6.962;2024-03-02T03:06:48;8.80;99.90
5899;DHT22;2975;50.956;6.962;2024-03-02T03:09:15;8.90;99.90
5899;DHT22;2975;50.956;6.962;2024-03-02T03:11:40;8.90;99.90
5899;DHT22;2975;50.956;6.962;2024-03-02T03:14:06;9.00;99.90
5899;DHT22;2975;50.956;6.962;2024-03-02T03:16:32;8.90;99.90
5899;DHT22;2975;50.956;6.962;2024-03-02T03:18:57;8.80;99.90
5899;DHT22;2975;50.956;6.962;2024-03-02T03:21:23;8.80;99.90
5899;DHT22;2975;50.956;6.962;2024-03-02T03:23:48;9.00;99.90
5899;DHT22;2975;50.956;6.962;2024-03-02T03:26:14;9.00;99.90
5899;DHT22;2975;50.956;6.962;2024-03-02T03:28:41;9.00;99.90
5899;DHT22;2975;50.956;6.962;2024-03-02T03:31:07;8.90;99.90
5899;DHT22;2975;50.956;6.962;2024-03-02T03:33:32;8.80;99.90
5899;DHT22;2975;50.956;6.962;2024-03-02T03:35:58;8.70;99.90
5899;DHT22;2975;50.956;6.962;2024-03-02T03:38:25;8.60;99.90
5899;DHT22;2975;50.956;6.962;2024-03-02T03:40:50;8.50;99.90
5899;DHT22;2975;50.956;6.962;2024-03-02T03:43:16;8.50;99.90
5899;DHT22;2975;50.956;6.962;2024-03-02T03:45:41;8.50;99.90
5899;DHT22;2975;50.956;6.962;2024-03-02T03:48:07;8.50;99.90
5899;DHT22;2975;50.956;6.962;2024-03-02T03:50:34;8.50;99.90
5899;DHT22;2975;50.956;6.962;2024-03-02T03:53:00;8.50;99.90
5899;DHT22;2975;50.956;6.962;2024-03-02T03:55:25;8.50;99.90
5899;DHT22;2975;50.956;6.962;2024-03-02T03:57:51;8.40;99.90
5899;DHT22;2975;50.956;6.962;2024-03-02T04:00:17;8.30;99.90
5899;DHT22;2975;50.956;6.962;2024-03-02T04:02:42;8.20;99.90
5899;DHT22;2975;50.956;6.962;2024-03-02T04:05:08;8.20;99.90
5899;DHT22;2975;50.956;6.962;2024-03-02T04:07:36;8.30;99.90
5899;DHT22;2975;50.956;6.962;2024-03-02T04:10:09;8.30;99.90
5899;DHT22;2975;50.956;6.962;2024-03-02T04:12:36;8.20;99.90
5899;DHT22;2975;50.956;6.962;2024-03-02T04:15:06;8.10;99.90
5899;DHT22;2975;50.956;6.962;2024-03-02T04:17:32;8.20;99.90
5899;DHT22;2975;50.956;6.962;2024-03-02T04:19:59;8.00;99.90
5899;DHT22;2975;50.956;6.962;2024-03-02T04:22:27;7.90;99.90
5899;DHT22;2975;50.956;6.962;2024-03-02T04:24:53;8.00;99.90
5899;DHT22;2975;50.956;6.962;2024-03-02T04:27:19;8.00;99.90
5899;DHT22;2975;50.956;6.962;2024-03-02T04:29:45;7.80;99.90
5899;DHT22;2975;50.956;6.962;2024-03-02T04:32:10;7.80;99.90
5899;DHT22;2975;50.956;6.962;2024-03-02T04:34:36;7.80;99.90
5899;DHT22;2975;50.956;6.962;2024-03-02T04:37:03;7.70;99.90
5899;DHT22;2975;50.956;6.962;2024-03-02T04:39:28;7.80;99.90
5899;DHT22;2975;50.956;6.962;2024-03-02T04:41:54;7.60;99.90
5899;DHT22;2975;50.956;6.962;2024-03-02T04:44:20;7.60;99.90
5899;DHT22;2975;50.956;6.962;2024-03-02T04:46:45;7.60;99.90
5899;DHT22;2975;50.956;6.962;2024-03-02T04:49:11;7.60;99.90
5899;DHT22;2975;50.956;6.962;2024-03-02T04:51:36;7.80;99.90
5899;DHT22;2975;50.956;6.962;2024-03-02T04:54:02;7.70;99.90
5899;DHT22;2975;50.956;6.962;2024-03-02T04:56:27;7.80;99.90
5899;DHT22;2975;50.956;6.962;2024-03-02T04:58:56;7.80;99.90
5899;DHT22;2975;50.956;6.962;2024-03-02T05:01:21;7.70;99.90
5899;DHT22;2975;50.956;6.962;2024-03-02T05:03:48;7.50;99.90
5899;DHT22;2975;50.956;6.962;2024-03-02T05:06:14;7.40;99.90
5899;DHT22;2975;50.956;6.962;2024-03-02T05:08:40;7.60;99.90
5899;DHT22;2975;50.956;6.962;2024-03-02T05:11:07;7.60;99.90
5899;DHT22;2975;50.956;6.962;2024-03-02T05:13:51;7.50;99.90
5899;DHT22;2975;50.956;6.962;2024-03-02T05:16:16;7.60;99.90
5899;DHT22;2975;50.956;6.962;2024-03-02T05:18:42;7.70;99.90
5899;DHT22;2975;50.956;6.962;2024-03-02T05:21:08;7.70;99.90
5899;DHT22;2975;50.956;6.962;2024-03-02T05:23:33;7.50;99.90
5899;DHT22;2975;50.956;6.962;2024-03-02T05:25:59;7.30;99.90
5899;DHT22;2975;50.956;6.962;2024-03-02T05:28:24;7.20;99.90
5899;DHT22;2975;50.956;6.962;2024-03-02T05:30:50;7.10;99.90
5899;DHT22;2975;50.956;6.962;2024-03-02T05:33:16;6.80;99.90
5899;DHT22;2975;50.956;6.962;2024-03-02T05:35:44;6.70;99.90
5899;DHT22;2975;50.956;6.962;2024-03-02T05:38:09;6.60;99.90
5899;DHT22;2975;50.956;6.962;2024-03-02T05:40:35;6.60;99.90
5899;DHT22;2975;50.956;6.962;2024-03-02T05:43:00;6.50;99.90
5899;DHT22;2975;50.956;6.962;2024-03-02T05:45:26;6.50;99.90
5899;DHT22;2975;50.956;6.962;2024-03-02T05:47:51;6.50;99.90
5899;DHT22;2975;50.956;6.962;2024-03-02T05:50:17;6.60;99.90
5899;DHT22;2975;50.956;6.962;2024-03-02T05:52:45;6.60;99.90
5899;DHT22;2975;50.956;6.962;2024-03-02T05:55:11;6.70;99.90
5899;DHT22;2975;50.956;6.962;2024-03-02T05:57:36;6.60;99.90
5899;DHT22;2975;50.956;6.962;2024-03-02T06:00:08;6.70;99.90
5899;DHT22;2975;50.956;6.962;2024-03-02T06:02:34;6.80;99.90
5899;DHT22;2975;50.956;6.962;2024-03-02T06:05:00;6.90;99.90
5899;DHT22;2975;50.956;6.962;2024-03-02T06:07:26;6.80;99.90
5899;DHT22;2975;50.956;6.962;2024-03-02T06:09:52;6.90;99.90
5899;DHT22;2975;50.956;6.962;2024-03-02T06:12:18;7.00;99.90
5899;DHT22;2975;50.956;6.962;2024-03-02T06:14:44;7.10;99.90
5899;DHT22;2975;50.956;6.962;2024-03-02T06:17:10;6.90;99.90
5899;DHT22;2975;50.956;6.962;2024-03-02T06:19:35;7.00;99.90
5899;DHT22;2975;50.956;6.962;2024-03-02T06:22:01;7.10;99.90
5899;DHT22;2975;50.956;6.962;2024-03-02T06:24:29;7.10;99.90
5899;DHT22;2975;50.956;6.962;2024-03-02T06:26:54;7.40;99.90
5899;DHT22;2975;50.956;6.962;2024-03-02T06:29:20;7.30;99.90
5899;DHT22;2975;50.956;6.962;2024-03-02T06:31:47;7.30;99.90
5899;DHT22;2975;50.956;6.962;2024-03-02T06:34:12;7.30;99.90
5899;DHT22;2975;50.956;6.962;2024-03-02T06:36:38;7.50;99.90
5899;DHT22;2975;50.956;6.962;2024-03-02T06:39:05;7.60;99.90
5899;DHT22;2975;50.956;6.962;2024-03-02T06:41:31;7.70;99.90
5899;DHT22;2975;50.956;6.962;2024-03-02T06:43:57;7.70;99.90
5899;DHT22;2975;50.956;6.962;2024-03-02T06:46:27;7.70;99.90
5899;DHT22;2975;50.956;6.962;2024-03-02T06:48:53;7.60;99.90
5899;DHT22;2975;50.956;6.962;2024-03-02T06:51:19;7.60;99.90
5899;DHT22;2975;50.956;6.962;2024-03-02T06:53:44;7.60;99.90
5899;DHT22;2975;50.956;6.962;2024-03-02T06:56:11;7.60;99.90
5899;DHT22;2975;50.956;6.962;2024-03-02T06:58:38;7.70;99.90
5899;DHT22;2975;50.956;6.962;2024-03-02T07:01:03;7.80;99.90
5899;DHT22;2975;50.956;6.962;2024-03-02T07:03:30;7.90;99.90
5899;DHT22;2975;50.956;6.962;2024-03-02T07:05:55;8.00;99.90
5899;DHT22;2975;50.956;6.962;2024-03-02T07:08:21;8.00;99.90
5899;DHT22;2975;50.956;6.962;2024-03-02T07:10:46;7.90;99.90
5899;DHT22;2975;50.956;6.962;2024-03-02T07:13:12;7.80;99.90
5899;DHT22;2975;50.956;6.962;2024-03-02T07:15:38;7.80;99.90
5899;DHT22;2975;50.956;6.962;2024-03-02T07:18:22;7.90;99.90
5899;DHT22;2975;50.956;6.962;2024-03-02T07:20:48;8.00;99.90
5899;DHT22;2975;50.956;6.962;2024-03-02T07:23:15;8.00;99.90
5899;DHT22;2975;50.956;6.962;2024-03-02T07:25:40;8.00;99.90
5899;DHT22;2975;50.956;6.962;2024-03-02T07:28:06;8.30;99.90
5899;DHT22;2975;50.956;6.962;2024-03-02T07:30:33;8.50;99.90
5899;DHT22;2975;50.956;6.962;2024-03-02T07:32:59;8.80;99.90
5899;DHT22;2975;50.956;6.962;2024-03-02T07:35:25;8.70;99.90
5899;DHT22;2975;50.956;6.962;2024-03-02T07:37:54;8.70;99.90
5899;DHT22;2975;50.956;6.962;2024-03-02T07:40:21;8.70;99.90
5899;DHT22;2975;50.956;6.962;2024-03-02T07:42:46;8.70;99.90
5899;DHT22;2975;50.956;6.962;2024-03-02T07:45:12;8.70;99.90
5899;DHT22;2975;50.956;6.962;2024-03-02T07:47:43;8.70;99.90
5899;DHT22;2975;50.956;6.962;2024-03-02T07:50:09;8.90;99.90
5899;DHT22;2975;50.956;6.962;2024-03-02T07:52:34;8.80;99.90
5899;DHT22;2975;50.956;6.962;2024-03-02T07:55:00;8.90;99.90
5899;DHT22;2975;50.956;6.962;2024-03-02T07:57:27;9.20;99.90
5899;DHT22;2975;50.956;6.962;2024-03-02T07:59:53;9.00;99.90
5899;DHT22;2975;50.956;6.962;2024-03-02T08:02:18;9.00;99.90
5899;DHT22;2975;50.956;6.962;2024-03-02T08:04:44;9.00;99.90
5899;DHT22;2975;50.956;6.962;2024-03-02T08:07:11;8.90;99.90
5899;DHT22;2975;50.956;6.962;2024-03-02T08:09:40;8.90;99.90
5899;DHT22;2975;50.956;6.962;2024-03-02T08:12:06;9.20;99.90
5899;DHT22;2975;50.956;6.962;2024-03-02T08:14:31;9.10;99.90
5899;DHT22;2975;50.956;6.962;2024-03-02T08:16:57;9.10;99.90
5899;DHT22;2975;50.956;6.962;2024-03-02T08:19:23;9.10;99.90
5899;DHT22;2975;50.956;6.962;2024-03-02T08:21:49;9.10;99.90
5899;DHT22;2975;50.956;6.962;2024-03-02T08:24:15;9.20;99.90
5899;DHT22;2975;50.956;6.962;2024-03-02T08:26:42;9.20;99.90
5899;DHT22;2975;50.956;6.962;2024-03-02T08:29:08;9.40;99.90
5899;DHT22;2975;50.956;6.962;2024-03-02T08:31:33;9.40;99.90
5899;DHT22;2975;50.956;6.962;2024-03-02T08:33:59;9.60;99.90
5899;DHT22;2975;50.956;6.962;2024-03-02T08:36:25;9.80;99.90
5899;DHT22;2975;50.956;6.962;2024-03-02T08:38:51;10.00;99.90
5899;DHT22;2975;50.956;6.962;2024-03-02T08:41:18;10.20;99.90
5899;DHT22;2975;50.956;6.962;2024-03-02T08:43:44;10.30;99.90
5899;DHT22;2975;50.956;6.962;2024-03-02T08:46:10;10.50;99.90
5899;DHT22;2975;50.956;6.962;2024-03-02T08:48:35;10.80;99.00
5899;DHT22;2975;50.956;6.962;2024-03-02T08:51:01;10.90;98.30
5899;DHT22;2975;50.956;6.962;2024-03-02T08:53:27;11.10;98.00
5899;DHT22;2975;50.956;6.962;2024-03-02T08:55:53;11.10;97.80
5899;DHT22;2975;50.956;6.962;2024-03-02T08:58:20;10.90;98.10
5899;DHT22;2975;50.956;6.962;2024-03-02T09:00:47;10.90;98.00
5899;DHT22;2975;50.956;6.962;2024-03-02T09:03:12;10.70;97.80
5899;DHT22;2975;50.956;6.962;2024-03-02T09:05:38;11.00;97.80
5899;DHT22;2975;50.956;6.962;2024-03-02T09:08:04;11.00;97.80
5899;DHT22;2975;50.956;6.962;2024-03-02T09:10:29;10.90;98.00
5899;DHT22;2975;50.956;6.962;2024-03-02T09:12:57;10.90;98.20
5899;DHT22;2975;50.956;6.962;2024-03-02T09:15:22;10.80;98.40
5899;DHT22;2975;50.956;6.962;2024-03-02T09:17:48;10.70;98.50
5899;DHT22;2975;50.956;6.962;2024-03-02T09:20:13;10.80;98.40
5899;DHT22;2975;50.956;6.962;2024-03-02T09:22:39;10.80;98.50
5899;DHT22;2975;50.956;6.962;2024-03-02T09:25:05;10.90;98.20
5899;DHT22;2975;50.956;6.962;2024-03-02T09:27:36;11.10;97.70
5899;DHT22;2975;50.956;6.962;2024-03-02T09:30:02;11.20;97.40
5899;DHT22;2975;50.956;6.962;2024-03-02T09:32:29;11.30;97.20
5899;DHT22;2975;50.956;6.962;2024-03-02T09:34:55;11.30;97.40
5899;DHT22;2975;50.956;6.962;2024-03-02T09:37:21;11.30;97.70
5899;DHT22;2975;50.956;6.962;2024-03-02T09:39:46;11.40;97.50
5899;DHT22;2975;50.956;6.962;2024-03-02T09:42:12;11.40;97.20
5899;DHT22;2975;50.956;6.962;2024-03-02T09:44:39;11.30;97.40
5899;DHT22;2975;50.956;6.962;2024-03-02T09:47:07;11.30;97.50
5899;DHT22;2975;50.956;6.962;2024-03-02T09:49:33;11.40;97.00
5899;DHT22;2975;50.956;6.962;2024-03-02T09:51:58;11.50;97.00
5899;DHT22;2975;50.956;6.962;2024-03-02T09:54:24;11.50;97.00
5899;DHT22;2975;50.956;6.962;2024-03-02T09:56:50;11.40;97.10
5899;DHT22;2975;50.956;6.962;2024-03-02T09:59:16;11.40;97.10
5899;DHT22;2975;50.956;6.962;2024-03-02T10:02:01;11.50;97.00
5899;DHT22;2975;50.956;6.962;2024-03-02T10:04:28;11.50;97.00
5899;DHT22;2975;50.956;6.962;2024-03-02T10:07:17;11.60;96.90
5899;DHT22;2975;50.956;6.962;2024-03-02T10:09:48;11.70;96.40
5899;DHT22;2975;50.956;6.962;2024-03-02T10:12:17;11.70;96.40
5899;DHT22;2975;50.956;6.962;2024-03-02T10:14:43;11.70;96.50
5899;DHT22;2975;50.956;6.962;2024-03-02T10:17:13;11.70;96.40
5899;DHT22;2975;50.956;6.962;2024-03-02T10:19:40;11.90;96.50
5899;DHT22;2975;50.956;6.962;2024-03-02T10:22:08;12.10;96.70
5899;DHT22;2975;50.956;6.962;2024-03-02T10:24:45;12.30;95.90
5899;DHT22;2975;50.956;6.962;2024-03-02T10:29:41;12.40;96.00
5899;DHT22;2975;50.956;6.962;2024-03-02T10:32:11;12.30;96.00
5899;DHT22;2975;50.956;6.962;2024-03-02T10:34:38;12.50;95.90
5899;DHT22;2975;50.956;6.962;2024-03-02T10:37:06;12.50;95.60
5899;DHT22;2975;50.956;6.962;2024-03-02T10:39:34;12.40;95.60
5899;DHT22;2975;50.956;6.962;2024-03-02T10:42:02;12.40;95.30
5899;DHT22;2975;50.956;6.962;2024-03-02T10:44:29;12.30;95.40
5899;DHT22;2975;50.956;6.962;2024-03-02T10:46:55;12.40;95.90
5899;DHT22;2975;50.956;6.962;2024-03-02T10:49:23;13.20;99.90
5899;DHT22;2975;50.956;6.962;2024-03-02T10:51:51;13.70;96.30
5899;DHT22;2975;50.956;6.962;2024-03-02T10:54:17;13.90;97.50
